Los Angeles, California
Traffic Map
Current Weather Conditions
Los Angeles, California
Clear
Clear
79°
Feels Like: 80°
Wind Chill: 79° Ceiling: Unl
Heat Index: 80° Visibility: 10mi
Dew Point: 59° Wind: 0mph
Humidity: 50% Direction: ° ()
Pressure: 29.88in Gusts: 0mph
Raw Report DataKCQT 240147Z AUTO 00000KT 10SM CLR 26/15 A2988 RMK AO2 SLP114 T02610150
Traffic Incident Summary
Active as of:
Severity:
Category:
InformationThere was an issue retrieving the traffic information for this location. Please try a different location or try again shortly.
Advertisements
Track Severe Weather on mobile